Time;durP1;ratioP1;P1;durP2;ratioP2;P2;SDS_P1;SDS_P2;PMS_P1;PMS_P2;Temp;Humidity;BMP_temperature;BMP_pressure;BME280_temperature;BME280_humidity;BME280_pressure;Samples;Min_cycle;Max_cycle;Signal;HPM_P1;HPM_P2
2022/03/21 00:00:53;;;;;;;14.43;12.50;;;8.10;90.40;;;;;;5015979;28;20224;-71
2022/03/21 00:03:22;;;;;;;16.53;14.20;;;8.10;90.50;;;;;;5016605;28;20865;-72
2022/03/21 00:05:48;;;;;;;14.70;13.17;;;8.00;90.40;;;;;;5016626;28;20409;-72
2022/03/21 00:08:17;;;;;;;20.07;14.60;;;8.00;90.80;;;;;;5016905;28;20454;-71
2022/03/21 00:10:43;;;;;;;16.00;13.47;;;8.00;90.90;;;;;;5015111;28;20180;-72
2022/03/21 00:13:09;;;;;;;15.23;13.57;;;7.90;91.20;;;;;;5016533;28;20423;-72
2022/03/21 00:15:35;;;;;;;15.40;13.27;;;8.00;91.40;;;;;;5016486;28;20443;-72
2022/03/21 00:18:03;;;;;;;15.40;13.80;;;7.80;91.30;;;;;;5016402;28;20498;-72
2022/03/21 00:20:30;;;;;;;15.10;13.50;;;7.70;91.60;;;;;;5014927;28;20424;-72
2022/03/21 00:22:57;;;;;;;17.47;13.90;;;7.70;91.80;;;;;;5016523;28;20427;-72
2022/03/21 00:25:23;;;;;;;15.87;13.23;;;7.70;91.70;;;;;;5016617;28;20421;-71
2022/03/21 00:27:48;;;;;;;16.60;14.80;;;7.70;92.10;;;;;;5016492;28;20778;-72
2022/03/21 00:30:15;;;;;;;15.60;13.60;;;7.70;92.30;;;;;;5015008;28;20429;-72
2022/03/21 00:32:41;;;;;;;15.90;13.83;;;7.70;92.20;;;;;;5005744;28;20185;-72
2022/03/21 00:35:09;;;;;;;16.53;14.33;;;7.50;92.60;;;;;;4995641;28;20481;-72
2022/03/21 00:37:37;;;;;;;16.67;14.23;;;7.60;92.70;;;;;;5016036;28;20427;-71
2022/03/21 00:40:07;;;;;;;14.40;12.50;;;7.60;92.80;;;;;;4993515;28;20416;-71
2022/03/21 00:42:40;;;;;;;16.27;13.83;;;7.60;92.80;;;;;;4997416;28;20434;-71
2022/03/21 00:45:09;;;;;;;16.23;13.77;;;7.60;92.80;;;;;;5004036;28;20404;-70
2022/03/21 00:47:36;;;;;;;14.50;12.80;;;7.60;92.90;;;;;;5015857;28;20436;-71
2022/03/21 00:50:03;;;;;;;15.77;14.03;;;7.50;93.00;;;;;;5015906;28;20954;-71
2022/03/21 00:52:30;;;;;;;13.73;12.30;;;7.40;93.20;;;;;;5015463;28;20849;-71
2022/03/21 00:54:56;;;;;;;14.77;13.17;;;7.40;93.20;;;;;;5015012;28;20431;-70
2022/03/21 00:57:21;;;;;;;14.83;13.23;;;7.40;93.40;;;;;;5015286;28;20939;-71
2022/03/21 00:59:47;;;;;;;15.73;12.83;;;7.50;93.40;;;;;;5014391;28;20168;-71
2022/03/21 01:02:13;;;;;;;17.43;13.83;;;7.50;93.40;;;;;;5015598;28;20277;-71
2022/03/21 01:04:39;;;;;;;15.23;12.77;;;7.40;93.50;;;;;;5015243;28;20226;-72
2022/03/21 01:07:04;;;;;;;16.80;13.17;;;7.30;93.70;;;;;;5015890;28;20604;-71
2022/03/21 01:09:30;;;;;;;16.30;13.43;;;7.30;93.90;;;;;;5015954;28;20502;-71
2022/03/21 01:11:56;;;;;;;16.60;13.70;;;7.20;94.10;;;;;;5015664;28;20587;-70
2022/03/21 01:14:22;;;;;;;17.97;14.13;;;7.10;94.20;;;;;;5015067;28;20408;-71
2022/03/21 01:16:47;;;;;;;14.30;12.23;;;7.10;94.60;;;;;;5015588;28;20184;-71
2022/03/21 01:19:13;;;;;;;14.73;13.03;;;7.20;94.60;;;;;;5015339;28;20234;-71
2022/03/21 01:21:38;;;;;;;13.97;12.50;;;7.20;94.70;;;;;;5013655;28;20263;-71
2022/03/21 01:24:04;;;;;;;15.50;13.90;;;7.10;94.50;;;;;;5015269;28;20184;-71
2022/03/21 01:26:30;;;;;;;15.30;12.70;;;7.10;94.50;;;;;;5014382;28;20229;-71
2022/03/21 01:28:58;;;;;;;14.40;12.90;;;7.10;94.80;;;;;;5015299;28;20407;-71
2022/03/21 01:31:24;;;;;;;17.30;14.50;;;7.10;94.80;;;;;;5015216;28;20317;-71
2022/03/21 01:33:50;;;;;;;16.10;13.50;;;7.10;94.80;;;;;;5015222;28;20463;-71
2022/03/21 01:36:16;;;;;;;16.07;13.87;;;7.10;94.70;;;;;;5014928;28;20594;-71
2022/03/21 01:38:41;;;;;;;14.70;12.90;;;7.00;95.00;;;;;;5014193;28;20416;-71
2022/03/21 01:41:07;;;;;;;14.97;13.47;;;7.00;94.90;;;;;;5015161;28;20164;-72
2022/03/21 01:43:52;;;;;;;15.80;14.10;;;7.10;94.80;;;;;;5014578;28;20219;-70
2022/03/21 01:46:18;;;;;;;14.67;13.10;;;7.20;94.60;;;;;;5015068;28;20245;-71
2022/03/21 01:48:44;;;;;;;15.07;13.50;;;7.20;95.10;;;;;;5013778;28;20409;-71
2022/03/21 01:51:09;;;;;;;15.50;13.57;;;7.30;95.10;;;;;;5014925;28;20173;-71
2022/03/21 01:56:19;;;;;;;15.00;12.50;;;7.20;95.10;;;;;;5014977;28;20271;-71
2022/03/21 01:58:45;;;;;;;18.97;14.30;;;7.20;95.30;;;;;;5012028;28;20868;-71
2022/03/21 02:01:10;;;;;;;16.90;14.17;;;7.10;96.20;;;;;;5014395;28;20252;-71
2022/03/21 02:03:36;;;;;;;14.90;13.30;;;7.00;96.20;;;;;;5014239;28;20204;-71
2022/03/21 02:06:01;;;;;;;14.43;12.77;;;6.80;95.80;;;;;;5014287;28;20275;-71
2022/03/21 02:08:27;;;;;;;16.00;13.93;;;7.00;96.10;;;;;;5014365;28;20174;-72
2022/03/21 02:10:53;;;;;;;14.33;12.80;;;7.00;96.30;;;;;;5014338;28;20199;-71
2022/03/21 02:13:21;;;;;;;16.27;14.23;;;7.10;96.50;;;;;;5013903;28;20526;-71
2022/03/21 02:15:47;;;;;;;16.27;14.00;;;7.00;96.30;;;;;;5014089;28;20445;-71
2022/03/21 02:18:12;;;;;;;15.90;13.17;;;7.10;96.10;;;;;;5014118;28;20745;-71
2022/03/21 02:20:40;;;;;;;17.30;14.60;;;7.10;96.30;;;;;;5012079;28;20173;-71
2022/03/21 02:23:35;;;;;;;15.80;14.20;;;7.10;96.50;;;;;;5013952;28;20188;-71
2022/03/21 02:26:01;;;;;;;16.50;13.90;;;7.00;96.70;;;;;;5014326;28;20423;-71
2022/03/21 02:28:29;;;;;;;15.80;14.13;;;7.10;96.80;;;;;;5014808;28;20893;-71
2022/03/21 02:30:56;;;;;;;14.83;12.80;;;7.10;96.50;;;;;;5014023;28;20561;-71
2022/03/21 02:33:23;;;;;;;15.80;13.23;;;7.10;96.60;;;;;;5013904;28;20430;-71
2022/03/21 02:35:50;;;;;;;14.83;12.57;;;7.00;96.50;;;;;;5013378;28;20883;-71
2022/03/21 02:38:18;;;;;;;15.67;13.70;;;7.00;97.10;;;;;;4993320;28;20725;-71
2022/03/21 02:40:44;;;;;;;14.67;12.90;;;7.00;97.00;;;;;;4993930;28;20918;-70
2022/03/21 02:43:09;;;;;;;23.07;13.73;;;7.00;97.20;;;;;;4992896;28;20486;-71
2022/03/21 02:45:35;;;;;;;15.10;13.60;;;7.10;97.00;;;;;;4994423;28;20173;-71
2022/03/21 02:48:01;;;;;;;16.20;14.27;;;7.10;96.90;;;;;;4992758;28;20173;-71
2022/03/21 02:50:39;;;;;;;13.80;12.50;;;7.20;96.70;;;;;;5000908;28;20200;-71
2022/03/21 02:53:06;;;;;;;14.03;12.57;;;7.30;96.80;;;;;;5013429;28;20235;-71
2022/03/21 02:55:32;;;;;;;15.13;12.40;;;7.40;96.60;;;;;;5013650;28;20537;-71
2022/03/21 02:57:58;;;;;;;13.47;12.00;;;7.30;96.90;;;;;;5013061;28;20408;-71
2022/03/21 03:00:24;;;;;;;16.67;13.70;;;7.40;96.90;;;;;;5013791;28;20403;-71
2022/03/21 03:02:49;;;;;;;14.47;12.87;;;7.30;96.90;;;;;;5013278;28;20214;-71
2022/03/21 03:05:15;;;;;;;14.27;12.87;;;7.40;97.00;;;;;;5012906;28;20177;-71
2022/03/21 03:07:40;;;;;;;15.37;13.77;;;7.50;97.00;;;;;;5014093;28;20174;-71
2022/03/21 03:10:06;;;;;;;14.77;13.17;;;7.50;96.80;;;;;;5013182;28;20174;-71
2022/03/21 03:12:32;;;;;;;14.10;12.60;;;7.20;96.80;;;;;;5012261;28;20238;-72
2022/03/21 03:14:58;;;;;;;14.20;12.70;;;7.20;97.10;;;;;;5013597;28;20892;-71
2022/03/21 03:17:24;;;;;;;15.70;13.30;;;7.10;97.60;;;;;;5013375;28;20413;-71
2022/03/21 03:19:49;;;;;;;15.23;12.67;;;7.10;97.60;;;;;;5013327;28;20258;-71
2022/03/21 03:22:17;;;;;;;15.87;14.20;;;7.00;97.30;;;;;;5011390;28;20219;-71
2022/03/21 03:24:43;;;;;;;14.47;12.97;;;6.90;97.40;;;;;;5013228;28;20168;-72
2022/03/21 03:27:09;;;;;;;13.50;12.17;;;6.90;97.60;;;;;;5013204;28;20757;-72
2022/03/21 03:29:34;;;;;;;18.13;14.83;;;7.00;97.90;;;;;;5013192;28;20456;-72
2022/03/21 03:32:03;;;;;;;16.13;12.70;;;6.90;97.80;;;;;;4998244;28;20243;-71
2022/03/21 03:34:31;;;;;;;16.33;13.93;;;7.00;97.70;;;;;;4988089;28;20180;-71
2022/03/21 03:36:57;;;;;;;14.10;12.33;;;6.90;97.80;;;;;;4993378;28;20441;-71
2022/03/21 03:39:22;;;;;;;16.50;13.27;;;6.80;97.80;;;;;;5012929;28;20720;-71
2022/03/21 03:41:48;;;;;;;14.20;12.73;;;6.70;98.30;;;;;;5013087;28;20580;-72
2022/03/21 03:44:16;;;;;;;14.07;12.70;;;6.70;98.10;;;;;;5013020;28;20187;-72
2022/03/21 03:46:42;;;;;;;14.67;13.10;;;6.70;97.90;;;;;;5011579;28;20184;-71
2022/03/21 03:49:08;;;;;;;13.40;12.00;;;6.70;98.00;;;;;;5012629;28;20502;-71
2022/03/21 03:51:33;;;;;;;14.03;12.53;;;6.70;97.80;;;;;;5013123;28;20172;-71
2022/03/21 03:53:59;;;;;;;15.23;12.87;;;6.60;98.00;;;;;;5012883;28;20504;-72
2022/03/21 03:56:24;;;;;;;13.17;11.73;;;6.50;97.80;;;;;;5012813;28;20241;-72
2022/03/21 03:58:50;;;;;;;15.13;13.20;;;6.40;97.60;;;;;;5011577;28;20176;-71
2022/03/21 04:01:15;;;;;;;14.40;12.90;;;6.40;98.20;;;;;;5012526;28;20164;-72
2022/03/21 04:03:47;;;;;;;16.80;13.03;;;6.40;98.40;;;;;;5037800;23;20224;-69
2022/03/21 04:06:12;;;;;;;14.67;13.13;;;6.40;98.40;;;;;;5013525;28;20206;-68
2022/03/21 04:08:38;;;;;;;15.30;13.57;;;6.40;98.40;;;;;;5013354;28;20888;-68
2022/03/21 04:11:03;;;;;;;15.73;13.33;;;6.30;98.30;;;;;;5013473;28;20264;-68
2022/03/21 04:13:29;;;;;;;15.27;13.17;;;6.20;98.40;;;;;;5014209;28;20209;-68
2022/03/21 04:15:54;;;;;;;13.70;12.20;;;6.30;98.90;;;;;;5012532;28;20558;-69
2022/03/21 04:18:20;;;;;;;16.60;13.00;;;6.20;98.70;;;;;;5013170;28;20530;-68
2022/03/21 04:20:50;;;;;;;16.63;12.23;;;6.20;98.50;;;;;;5013225;28;20215;-68
2022/03/21 04:23:17;;;;;;;16.07;13.07;;;6.30;98.10;;;;;;5012129;28;20200;-69
2022/03/21 04:25:43;;;;;;;14.80;12.03;;;6.30;97.20;;;;;;5014051;28;20430;-68
2022/03/21 04:28:12;;;;;;;14.03;12.40;;;6.40;96.70;;;;;;5033164;28;20815;-69
2022/03/21 04:30:38;;;;;;;15.83;13.77;;;6.60;96.00;;;;;;5031362;28;20414;-68
2022/03/21 04:33:04;;;;;;;13.70;11.60;;;6.60;96.10;;;;;;5032798;28;20437;-68
2022/03/21 04:35:31;;;;;;;13.33;11.90;;;6.70;96.20;;;;;;5013906;28;20668;-69
2022/03/21 04:37:57;;;;;;;17.37;14.03;;;6.90;96.30;;;;;;5009773;28;20428;-68
2022/03/21 04:40:23;;;;;;;15.07;13.47;;;7.00;96.20;;;;;;5012842;28;20403;-68
2022/03/21 04:42:49;;;;;;;17.60;14.00;;;7.10;96.20;;;;;;5015004;28;20436;-68
2022/03/21 04:45:16;;;;;;;15.17;13.53;;;7.10;96.30;;;;;;5016285;28;20494;-68
2022/03/21 04:47:43;;;;;;;13.87;12.47;;;7.20;96.10;;;;;;5016233;28;20900;-68
2022/03/21 04:50:09;;;;;;;15.50;12.67;;;7.20;96.30;;;;;;5013171;28;20939;-69
2022/03/21 04:52:36;;;;;;;14.67;12.73;;;7.10;96.50;;;;;;5007573;28;20851;-69
2022/03/21 04:55:02;;;;;;;16.63;13.10;;;7.00;96.60;;;;;;5016065;28;20403;-68
2022/03/21 04:57:28;;;;;;;18.63;13.43;;;6.80;96.20;;;;;;5024043;28;20815;-69
2022/03/21 04:59:54;;;;;;;14.20;12.80;;;6.80;96.40;;;;;;5035044;28;20417;-68
2022/03/21 05:02:21;;;;;;;14.77;13.17;;;6.70;96.70;;;;;;5035683;28;20418;-68
2022/03/21 05:04:46;;;;;;;14.67;13.10;;;6.60;97.00;;;;;;5035815;28;20554;-68
2022/03/21 05:07:16;;;;;;;14.23;12.33;;;6.60;97.20;;;;;;5035604;28;20540;-68
2022/03/21 05:09:42;;;;;;;14.47;12.30;;;6.40;97.10;;;;;;5025993;28;20410;-68
2022/03/21 05:12:09;;;;;;;14.73;12.87;;;6.40;97.40;;;;;;5015671;28;20826;-68
2022/03/21 05:14:35;;;;;;;15.57;13.80;;;6.40;97.80;;;;;;5015791;28;20423;-68
2022/03/21 05:17:02;;;;;;;15.23;11.83;;;6.40;97.80;;;;;;5015896;28;20532;-68
2022/03/21 05:19:28;;;;;;;14.83;12.43;;;6.40;97.60;;;;;;5015883;28;20412;-67
2022/03/21 05:21:54;;;;;;;16.43;13.77;;;6.30;97.90;;;;;;5014222;28;20421;-68
2022/03/21 05:32:33;;;;;;;15.60;14.03;;;6.00;98.90;;;;;;5016028;28;20441;-68
2022/03/21 05:37:42;;;;;;;16.33;14.17;;;6.00;98.10;;;;;;5015406;28;20527;-68
2022/03/21 05:42:55;;;;;;;16.10;12.70;;;6.10;98.40;;;;;;5016141;28;20231;-68
2022/03/21 05:45:20;;;;;;;14.80;12.80;;;6.10;98.20;;;;;;5017081;28;20410;-68
2022/03/21 05:50:35;;;;;;;17.83;14.40;;;6.20;98.20;;;;;;5035627;28;20210;-68
2022/03/21 05:53:02;;;;;;;20.53;14.23;;;6.30;98.20;;;;;;5019052;28;20426;-68
2022/03/21 05:55:29;;;;;;;17.77;14.33;;;6.30;98.20;;;;;;5016058;28;20443;-69
2022/03/21 05:57:55;;;;;;;17.10;13.90;;;6.30;97.60;;;;;;5016648;28;20403;-70
2022/03/21 06:00:20;;;;;;;14.13;12.43;;;6.30;97.40;;;;;;5018099;28;20900;-69
2022/03/21 06:02:46;;;;;;;15.53;13.77;;;6.40;97.50;;;;;;5018035;28;20203;-69
2022/03/21 06:05:12;;;;;;;15.40;13.80;;;6.50;97.70;;;;;;5016636;28;20283;-69
2022/03/21 06:07:38;;;;;;;15.97;13.53;;;6.50;97.60;;;;;;5014414;28;20200;-68
2022/03/21 06:10:04;;;;;;;16.50;14.07;;;6.30;97.50;;;;;;5015729;28;20175;-69
2022/03/21 06:12:32;;;;;;;14.10;12.33;;;6.40;97.90;;;;;;5015992;28;20494;-69
2022/03/21 06:14:59;;;;;;;14.83;12.77;;;6.40;97.90;;;;;;5016103;28;20411;-67
2022/03/21 06:17:25;;;;;;;16.80;13.63;;;6.50;97.70;;;;;;5015334;28;20414;-68
2022/03/21 06:19:51;;;;;;;16.27;14.20;;;6.50;98.20;;;;;;5014887;28;20410;-68
2022/03/21 06:22:16;;;;;;;14.47;12.90;;;6.50;98.10;;;;;;5013506;28;20415;-69
2022/03/21 06:24:42;;;;;;;15.23;13.43;;;6.60;98.00;;;;;;5014632;28;20919;-68
2022/03/21 06:27:07;;;;;;;17.30;13.30;;;6.80;97.40;;;;;;5014085;28;20233;-68
2022/03/21 06:29:33;;;;;;;15.97;13.77;;;6.90;97.10;;;;;;5014346;28;20176;-68
2022/03/21 06:31:59;;;;;;;15.07;13.50;;;6.80;96.60;;;;;;5013241;28;20180;-69
2022/03/21 06:34:24;;;;;;;17.83;13.60;;;6.90;96.90;;;;;;5014269;28;20247;-68
2022/03/21 06:36:50;;;;;;;18.10;16.20;;;7.00;97.10;;;;;;5013757;28;20228;-69
2022/03/21 06:39:15;;;;;;;17.43;15.63;;;7.10;97.20;;;;;;5014505;28;20172;-69
2022/03/21 06:41:42;;;;;;;17.50;15.00;;;7.20;97.10;;;;;;5014321;28;20641;-69
2022/03/21 06:44:08;;;;;;;17.20;14.60;;;7.30;97.10;;;;;;5014289;28;20200;-69
2022/03/21 06:46:34;;;;;;;16.77;14.60;;;7.40;97.10;;;;;;5024628;28;20786;-68
2022/03/21 06:48:59;;;;;;;17.80;14.70;;;7.40;96.70;;;;;;5033948;28;20172;-68
2022/03/21 06:51:25;;;;;;;18.30;15.50;;;7.60;95.90;;;;;;5032886;28;20596;-69
2022/03/21 06:53:51;;;;;;;16.80;14.53;;;7.50;94.50;;;;;;5013744;28;20205;-69
2022/03/21 06:56:16;;;;;;;16.70;14.50;;;7.60;94.70;;;;;;5014252;28;20249;-68
2022/03/21 06:58:42;;;;;;;16.30;14.20;;;7.70;94.80;;;;;;5014344;28;20169;-68
2022/03/21 07:01:08;;;;;;;18.37;15.13;;;7.70;94.90;;;;;;5014447;28;20166;-68
2022/03/21 07:03:33;;;;;;;18.57;13.70;;;7.90;94.60;;;;;;5014034;28;20214;-68
2022/03/21 07:05:59;;;;;;;19.13;16.27;;;7.90;93.90;;;;;;5013983;28;20185;-68
2022/03/21 07:08:25;;;;;;;14.20;12.83;;;8.00;93.60;;;;;;5013632;28;20508;-69
2022/03/21 07:10:50;;;;;;;16.73;14.33;;;8.20;93.60;;;;;;5014109;28;20237;-69
2022/03/21 07:13:16;;;;;;;15.73;14.00;;;8.30;93.70;;;;;;5013611;28;20281;-69
2022/03/21 07:15:42;;;;;;;18.27;14.60;;;8.30;93.10;;;;;;5013726;28;20220;-68
2022/03/21 07:18:09;;;;;;;15.60;13.90;;;8.30;92.40;;;;;;5013632;28;20174;-68
2022/03/21 07:20:35;;;;;;;15.30;13.60;;;8.50;92.80;;;;;;5013867;28;20182;-69
2022/03/21 07:23:01;;;;;;;17.87;15.07;;;8.70;93.40;;;;;;5012121;28;20456;-69
2022/03/21 07:25:27;;;;;;;18.43;16.53;;;8.90;93.70;;;;;;5013353;28;20857;-69
2022/03/21 07:27:52;;;;;;;21.50;15.97;;;9.00;93.10;;;;;;5013688;28;20183;-69
2022/03/21 07:30:18;;;;;;;16.70;15.03;;;9.10;93.20;;;;;;5011503;28;20260;-69
2022/03/21 07:32:45;;;;;;;16.70;14.30;;;9.20;92.70;;;;;;5009692;28;20198;-68
2022/03/21 07:35:12;;;;;;;16.20;14.50;;;9.30;93.10;;;;;;5012590;28;20520;-70
2022/03/21 07:37:42;;;;;;;16.27;14.47;;;9.40;93.30;;;;;;5012417;28;20423;-69
2022/03/21 07:40:11;;;;;;;17.90;14.50;;;9.50;91.60;;;;;;5012334;28;20407;-69
2022/03/21 07:42:41;;;;;;;16.43;14.73;;;9.30;91.70;;;;;;5012674;28;20930;-68
2022/03/21 07:47:53;;;;;;;18.27;16.17;;;9.30;90.40;;;;;;5023119;28;20451;-69
2022/03/21 07:50:23;;;;;;;18.90;14.80;;;9.00;91.00;;;;;;5003908;28;20564;-70
2022/03/21 07:52:50;;;;;;;18.90;14.50;;;9.20;90.70;;;;;;5012955;28;20439;-70
2022/03/21 07:55:15;;;;;;;16.57;14.33;;;8.90;90.60;;;;;;5013285;28;20414;-70
2022/03/21 07:57:41;;;;;;;16.27;14.57;;;8.80;90.70;;;;;;5012763;28;20417;-69
2022/03/21 08:00:09;;;;;;;17.80;14.47;;;8.90;90.70;;;;;;5013227;28;20190;-70
2022/03/21 08:02:35;;;;;;;19.80;15.80;;;9.20;90.60;;;;;;5020945;28;20265;-69
2022/03/21 08:05:01;;;;;;;16.37;14.60;;;9.50;90.60;;;;;;5033209;28;20488;-70
2022/03/21 08:07:27;;;;;;;17.37;14.37;;;9.70;90.20;;;;;;5037920;22;20589;-70
2022/03/21 08:09:53;;;;;;;17.60;15.37;;;9.80;90.00;;;;;;5013140;28;20245;-71
2022/03/21 08:12:19;;;;;;;19.87;15.83;;;10.00;89.40;;;;;;5011677;28;20442;-71
2022/03/21 08:14:44;;;;;;;22.60;17.07;;;10.10;89.40;;;;;;5012144;28;20409;-71
2022/03/21 08:17:10;;;;;;;18.23;15.10;;;10.30;87.70;;;;;;5012813;28;20224;-71
2022/03/21 08:22:07;;;;;;;18.30;15.67;;;10.00;87.80;;;;;;5011657;28;20264;-69
2022/03/21 08:24:35;;;;;;;20.23;16.50;;;10.00;86.80;;;;;;5016704;28;20410;-69
2022/03/21 08:27:01;;;;;;;17.10;15.07;;;10.10;87.00;;;;;;5016634;28;20403;-69
2022/03/21 08:29:27;;;;;;;17.83;15.30;;;10.40;86.60;;;;;;5016519;28;20406;-68
2022/03/21 08:31:52;;;;;;;18.17;16.07;;;10.30;85.50;;;;;;5016398;28;20429;-69
2022/03/21 08:34:18;;;;;;;17.00;15.23;;;10.30;86.80;;;;;;5016543;28;20171;-70
2022/03/21 08:36:45;;;;;;;17.17;15.30;;;10.70;87.90;;;;;;5014939;28;20709;-69
2022/03/21 08:39:10;;;;;;;18.80;15.20;;;10.30;85.50;;;;;;5024490;22;20227;-71
2022/03/21 08:41:37;;;;;;;17.90;15.40;;;10.30;86.80;;;;;;5013387;28;20783;-71
2022/03/21 08:44:03;;;;;;;18.00;15.27;;;10.60;87.30;;;;;;5019044;28;20175;-70
2022/03/21 08:46:29;;;;;;;18.80;15.57;;;10.90;85.50;;;;;;5036078;28;20400;-70
2022/03/21 08:51:39;;;;;;;16.23;14.50;;;10.90;84.20;;;;;;5036122;28;20588;-69
2022/03/21 08:54:05;;;;;;;17.60;14.97;;;11.00;84.70;;;;;;5044676;23;20494;-69
2022/03/21 08:56:30;;;;;;;16.87;15.17;;;11.10;83.70;;;;;;5017168;28;20223;-71
2022/03/21 08:58:56;;;;;;;21.70;16.07;;;11.00;83.60;;;;;;5015425;28;20446;-68
2022/03/21 09:01:23;;;;;;;17.60;15.47;;;11.00;83.20;;;;;;5016271;28;20331;-69
2022/03/21 09:03:49;;;;;;;18.07;16.13;;;11.10;83.80;;;;;;5015950;28;20447;-69
2022/03/21 09:06:15;;;;;;;16.90;15.20;;;11.00;82.90;;;;;;5016038;28;20414;-69
2022/03/21 09:08:42;;;;;;;18.33;15.80;;;11.10;82.40;;;;;;5015788;28;20783;-69
2022/03/21 09:11:08;;;;;;;21.10;16.37;;;11.20;82.60;;;;;;5015845;28;20171;-70
2022/03/21 09:13:34;;;;;;;17.03;15.20;;;11.40;81.90;;;;;;5015752;28;20435;-69
2022/03/21 09:16:00;;;;;;;17.63;15.63;;;11.60;81.30;;;;;;5015689;28;20578;-72
2022/03/21 09:18:26;;;;;;;20.23;15.53;;;11.80;81.10;;;;;;5016210;28;20172;-70
2022/03/21 09:20:51;;;;;;;19.20;17.10;;;11.80;80.40;;;;;;5016582;28;20175;-73
2022/03/21 09:23:17;;;;;;;19.67;16.13;;;11.80;81.70;;;;;;5014264;28;20612;-72
2022/03/21 09:25:43;;;;;;;16.57;14.77;;;12.00;80.90;;;;;;5016455;28;20176;-70
2022/03/21 09:28:09;;;;;;;23.20;15.57;;;12.30;80.00;;;;;;5015693;28;20505;-70
2022/03/21 09:30:36;;;;;;;17.33;15.27;;;12.10;79.40;;;;;;5015871;28;20920;-69
2022/03/21 09:33:02;;;;;;;18.80;15.87;;;12.00;79.90;;;;;;5015457;28;20184;-69
2022/03/21 09:35:28;;;;;;;18.83;15.53;;;12.10;80.20;;;;;;5015290;28;20483;-70
2022/03/21 09:37:53;;;;;;;19.97;16.47;;;12.20;79.70;;;;;;5015389;28;20174;-70
2022/03/21 09:40:20;;;;;;;21.20;17.53;;;12.30;79.20;;;;;;5016264;28;20177;-69
2022/03/21 09:42:46;;;;;;;20.10;16.00;;;12.40;79.60;;;;;;5015460;28;20273;-69
2022/03/21 09:45:13;;;;;;;18.03;15.47;;;12.80;79.20;;;;;;5016538;28;20430;-70
2022/03/21 09:50:35;;;;;;;17.00;15.20;;;13.00;77.80;;;;;;5015687;28;20753;-70
2022/03/21 09:53:04;;;;;;;17.03;15.33;;;13.10;77.60;;;;;;5014404;28;20461;-69
2022/03/21 09:55:30;;;;;;;18.00;16.17;;;13.20;77.40;;;;;;5015840;28;20933;-69
2022/03/21 09:57:56;;;;;;;18.67;16.40;;;13.20;77.50;;;;;;5014998;28;20494;-69
2022/03/21 10:00:22;;;;;;;17.40;15.70;;;13.20;77.50;;;;;;5014905;28;20279;-69
2022/03/21 10:02:48;;;;;;;21.50;15.80;;;13.20;77.40;;;;;;5014756;28;20249;-70
2022/03/21 10:05:33;;;;;;;18.87;16.97;;;13.50;77.90;;;;;;5014887;28;20415;-72
2022/03/21 10:08:21;;;;;;;18.50;16.00;;;13.90;76.70;;;;;;5014365;28;20403;-72
2022/03/21 10:11:02;;;;;;;19.13;16.10;;;14.00;75.80;;;;;;5014846;28;20770;-71
2022/03/21 10:13:29;;;;;;;21.80;16.73;;;13.90;75.70;;;;;;5014733;28;21085;-73
2022/03/21 10:16:18;;;;;;;19.67;17.67;;;13.90;75.70;;;;;;5014558;28;20971;-73
2022/03/21 10:19:04;;;;;;;20.30;16.87;;;13.70;75.40;;;;;;5013294;28;20414;-72
2022/03/21 10:21:30;;;;;;;20.77;17.53;;;13.70;75.50;;;;;;5014211;28;20510;-72
2022/03/21 10:24:10;;;;;;;18.70;16.83;;;13.70;75.70;;;;;;5012376;28;20458;-69
2022/03/21 10:26:40;;;;;;;20.03;17.93;;;14.10;76.10;;;;;;4992865;28;20399;-70
2022/03/21 10:29:10;;;;;;;19.73;17.37;;;14.40;75.00;;;;;;4994930;28;20441;-71
2022/03/21 10:31:38;;;;;;;20.73;18.33;;;14.30;75.00;;;;;;4994943;28;20458;-70
2022/03/21 10:34:09;;;;;;;21.00;18.20;;;14.50;75.60;;;;;;4994607;28;20521;-70
2022/03/21 10:36:35;;;;;;;21.97;18.17;;;14.80;73.70;;;;;;4994625;28;20785;-71
2022/03/21 10:39:12;;;;;;;25.63;18.87;;;14.80;74.00;;;;;;4994232;28;20486;-74
2022/03/21 10:41:39;;;;;;;19.50;17.07;;;15.10;72.40;;;;;;4994542;28;20407;-72
2022/03/21 10:44:07;;;;;;;21.80;17.57;;;15.20;71.20;;;;;;4994766;28;20423;-72
2022/03/21 10:46:34;;;;;;;22.83;20.43;;;15.30;71.20;;;;;;4994519;28;20525;-71
2022/03/21 10:49:06;;;;;;;20.67;18.50;;;15.50;71.50;;;;;;5008222;28;20422;-70
2022/03/21 10:51:53;;;;;;;22.00;18.77;;;15.60;69.90;;;;;;5014195;28;20399;-70
2022/03/21 10:54:50;;;;;;;21.40;18.43;;;16.20;69.30;;;;;;4974179;28;20448;-70
2022/03/21 10:57:33;;;;;;;19.90;17.00;;;16.30;67.10;;;;;;4973528;28;20448;-71
2022/03/21 11:00:19;;;;;;;21.30;19.03;;;16.50;65.90;;;;;;4975473;28;20439;-72
2022/03/21 11:02:57;;;;;;;23.17;18.03;;;16.40;64.20;;;;;;4975096;28;20476;-72
2022/03/21 11:05:24;;;;;;;21.10;18.77;;;16.60;64.80;;;;;;4987243;28;20415;-72
2022/03/21 11:07:50;;;;;;;19.73;17.63;;;16.90;64.00;;;;;;4995760;28;20813;-72
2022/03/21 11:10:18;;;;;;;22.20;18.50;;;17.10;62.60;;;;;;4994489;28;20415;-71
2022/03/21 11:12:45;;;;;;;21.00;17.70;;;17.20;62.10;;;;;;5011582;28;20414;-72
2022/03/21 11:15:12;;;;;;;23.30;17.87;;;17.00;62.90;;;;;;5013760;28;20430;-72
2022/03/21 11:17:38;;;;;;;17.13;14.90;;;16.70;61.30;;;;;;5013957;28;20420;-71
2022/03/21 11:20:05;;;;;;;23.03;19.60;;;17.20;61.60;;;;;;5013468;28;20404;-71
2022/03/21 11:22:34;;;;;;;25.43;20.43;;;17.10;61.30;;;;;;5011722;28;20453;-71
2022/03/21 11:25:08;;;;;;;22.20;18.93;;;17.30;60.70;;;;;;5013623;28;20415;-71
2022/03/21 11:28:01;;;;;;;23.53;17.43;;;18.20;59.60;;;;;;5013554;28;20411;-71
2022/03/21 11:30:49;;;;;;;19.67;17.43;;;18.70;59.30;;;;;;5008119;28;20450;-72
2022/03/21 11:33:47;;;;;;;20.30;18.20;;;17.90;60.00;;;;;;5013521;28;20469;-72
2022/03/21 11:36:13;;;;;;;22.07;18.67;;;17.60;60.00;;;;;;5013332;28;20894;-71
2022/03/21 11:38:47;;;;;;;20.80;18.60;;;17.80;61.10;;;;;;5012933;28;20407;-72
2022/03/21 11:41:22;;;;;;;20.63;18.43;;;18.80;59.60;;;;;;5013712;28;20489;-72
2022/03/21 11:44:06;;;;;;;21.77;18.30;;;18.90;58.60;;;;;;5013523;28;20426;-72
2022/03/21 11:46:37;;;;;;;21.47;19.27;;;19.50;56.80;;;;;;5011752;28;20927;-71
2022/03/21 11:49:16;;;;;;;21.40;17.73;;;20.10;56.70;;;;;;5013504;28;20418;-72
2022/03/21 11:51:43;;;;;;;20.73;18.63;;;19.60;55.10;;;;;;5013886;28;20406;-74
2022/03/21 11:54:30;;;;;;;20.70;17.70;;;18.80;55.20;;;;;;5016145;28;20545;-75
2022/03/21 11:56:59;;;;;;;23.93;18.67;;;18.50;54.60;;;;;;4976830;28;20440;-69
2022/03/21 11:59:34;;;;;;;18.90;16.90;;;18.30;56.40;;;;;;4979349;28;20401;-73
2022/03/21 12:02:22;;;;;;;22.43;18.20;;;18.80;54.50;;;;;;5016077;28;20410;-72
2022/03/21 12:05:00;;;;;;;19.30;17.40;;;20.40;53.40;;;;;;5015436;28;20473;-73
2022/03/21 12:07:25;;;;;;;19.80;17.77;;;20.40;52.40;;;;;;5016058;28;20892;-72
2022/03/21 12:09:52;;;;;;;19.23;17.00;;;20.70;51.10;;;;;;5014044;28;20429;-73
2022/03/21 12:12:51;;;;;;;22.30;18.77;;;19.80;50.90;;;;;;5015707;28;20314;-73
2022/03/21 12:15:29;;;;;;;18.20;16.50;;;19.90;51.70;;;;;;5001400;28;20480;-74
2022/03/21 12:17:55;;;;;;;17.90;16.07;;;21.10;51.60;;;;;;5015861;28;20394;-74
2022/03/21 12:20:23;;;;;;;17.90;16.10;;;22.50;49.00;;;;;;5015487;28;20403;-74
2022/03/21 12:22:49;;;;;;;21.20;17.50;;;23.30;47.30;;;;;;5014024;28;20450;-74
2022/03/21 12:25:26;;;;;;;19.67;17.03;;;23.20;46.10;;;;;;4992786;28;20407;-74
2022/03/21 12:27:56;;;;;;;17.80;15.90;;;23.20;45.90;;;;;;4996145;28;20474;-74
2022/03/21 12:32:52;;;;;;;19.97;15.67;;;21.40;46.70;;;;;;4995930;28;20498;-75
2022/03/21 12:35:34;;;;;;;19.00;17.00;;;22.60;47.00;;;;;;4995766;28;20490;-73
2022/03/21 12:38:07;;;;;;;18.30;16.50;;;23.50;45.70;;;;;;4996073;28;20435;-74
2022/03/21 12:40:38;;;;;;;17.93;15.77;;;21.70;45.20;;;;;;4995823;28;20766;-72
2022/03/21 12:43:05;;;;;;;16.33;14.73;;;20.70;48.00;;;;;;5000270;28;20432;-73
2022/03/21 12:45:31;;;;;;;16.60;14.03;;;21.40;46.70;;;;;;4996460;28;20928;-74
2022/03/21 12:48:04;;;;;;;18.13;14.90;;;21.00;46.40;;;;;;4998153;28;20404;-74
2022/03/21 12:50:31;;;;;;;16.83;15.03;;;20.70;46.60;;;;;;4996639;28;20408;-74
2022/03/21 12:52:59;;;;;;;18.07;15.67;;;20.20;46.90;;;;;;4968205;28;1067111;-73
2022/03/21 12:55:26;;;;;;;18.97;14.30;;;20.30;48.40;;;;;;5015987;28;20152;-74
2022/03/21 12:57:57;;;;;;;17.20;15.50;;;20.90;47.10;;;;;;5016248;28;20414;-73
2022/03/21 13:00:27;;;;;;;16.53;14.00;;;20.60;46.10;;;;;;5017250;28;20869;-71
2022/03/21 13:02:57;;;;;;;19.37;15.40;;;20.20;47.00;;;;;;5017068;28;20453;-75
2022/03/21 13:11:02;;;;;;;17.00;13.50;;;21.20;46.30;;;;;;5016470;28;20390;-77
2022/03/21 13:13:42;;;;;;;16.23;12.57;;;20.70;46.00;;;;;;5017369;28;20982;-76
2022/03/21 13:16:10;;;;;;;18.53;13.33;;;21.30;46.00;;;;;;5017844;28;20449;-76